Time;durP1;ratioP1;P1;durP2;ratioP2;P2;SDS_P1;SDS_P2;PMS_P1;PMS_P2;Temp;Humidity;BMP_temperature;BMP_pressure;BME280_temperature;BME280_humidity;BME280_pressure;Samples;Min_cycle;Max_cycle;Signal;HPM_P1;HPM_P2
2021/09/21 00:01:40;;;;;;;5.70;5.40;;;17.00;91.90;;;;;;5031921;28;20653;-68
2021/09/21 00:04:06;;;;;;;6.67;6.27;;;17.10;92.30;;;;;;5031581;28;20260;-69
2021/09/21 00:06:32;;;;;;;6.60;5.97;;;17.10;94.60;;;;;;5032111;28;20457;-68
2021/09/21 00:08:58;;;;;;;6.50;6.00;;;17.10;95.10;;;;;;5032116;28;20237;-68
2021/09/21 00:11:23;;;;;;;6.17;5.67;;;17.10;92.60;;;;;;5031836;28;20504;-68
2021/09/21 00:13:49;;;;;;;6.80;6.30;;;17.00;90.10;;;;;;5015971;28;20182;-68
2021/09/21 00:16:15;;;;;;;6.87;6.30;;;17.00;88.30;;;;;;5035214;28;20182;-68
2021/09/21 00:18:41;;;;;;;6.50;6.10;;;16.80;88.10;;;;;;5035482;28;20261;-68
2021/09/21 00:21:07;;;;;;;7.67;6.87;;;16.70;88.60;;;;;;5035144;28;20236;-68
2021/09/21 00:23:32;;;;;;;6.93;6.43;;;16.70;87.80;;;;;;5035366;28;20265;-68
2021/09/21 00:25:58;;;;;;;6.50;6.07;;;16.40;88.80;;;;;;5035583;28;20181;-68
2021/09/21 00:28:24;;;;;;;10.60;6.80;;;16.40;89.90;;;;;;5034902;28;20554;-68
2021/09/21 00:30:52;;;;;;;6.80;6.30;;;16.30;91.40;;;;;;5035623;28;20409;-68
2021/09/21 00:33:21;;;;;;;7.40;6.80;;;16.30;90.60;;;;;;5017202;28;20432;-68
2021/09/21 00:35:49;;;;;;;7.00;6.50;;;16.40;90.90;;;;;;5035435;28;20401;-68
2021/09/21 00:38:16;;;;;;;7.70;7.10;;;16.30;90.80;;;;;;5034528;28;20766;-69
2021/09/21 00:40:43;;;;;;;8.20;7.50;;;16.40;91.00;;;;;;5035064;28;20885;-68
2021/09/21 00:43:09;;;;;;;8.10;7.50;;;16.40;90.90;;;;;;5034776;28;20495;-68
2021/09/21 00:45:35;;;;;;;7.03;6.53;;;16.40;91.30;;;;;;5035361;28;20566;-68
2021/09/21 00:48:01;;;;;;;7.57;7.07;;;16.40;92.70;;;;;;5035214;28;20255;-68
2021/09/21 00:50:28;;;;;;;8.00;7.40;;;16.40;95.30;;;;;;5034597;28;20476;-68
2021/09/21 00:52:56;;;;;;;8.70;8.00;;;16.40;95.10;;;;;;5035116;28;20431;-68
2021/09/21 00:55:22;;;;;;;8.37;7.77;;;16.30;91.90;;;;;;5034492;28;20435;-68
2021/09/21 00:57:48;;;;;;;8.03;7.40;;;16.30;92.70;;;;;;5034971;28;20409;-68
2021/09/21 01:00:17;;;;;;;8.13;7.53;;;16.40;93.00;;;;;;5034367;28;20492;-68
2021/09/21 01:02:43;;;;;;;7.83;7.23;;;16.40;94.50;;;;;;5017444;28;20442;-68
2021/09/21 01:05:10;;;;;;;8.10;7.37;;;16.40;94.40;;;;;;5033968;28;20415;-71
2021/09/21 01:07:37;;;;;;;8.23;7.43;;;16.40;92.60;;;;;;5034478;28;20677;-67
2021/09/21 01:10:25;;;;;;;8.63;7.70;;;16.30;92.10;;;;;;5034466;28;20416;-68
2021/09/21 01:12:52;;;;;;;8.83;8.10;;;16.30;91.40;;;;;;5034820;28;20911;-68
2021/09/21 01:15:18;;;;;;;7.10;6.47;;;16.20;91.30;;;;;;5016458;28;20457;-68
2021/09/21 01:17:44;;;;;;;9.43;6.43;;;16.20;91.40;;;;;;5034940;28;20460;-68
2021/09/21 01:20:12;;;;;;;7.13;6.43;;;16.20;91.20;;;;;;5034057;28;20948;-71
2021/09/21 01:22:38;;;;;;;7.73;7.03;;;16.10;90.70;;;;;;5034535;28;20417;-68
2021/09/21 01:25:04;;;;;;;8.00;7.20;;;16.10;90.50;;;;;;5033633;28;20412;-68
2021/09/21 01:27:30;;;;;;;7.33;6.63;;;15.80;90.40;;;;;;5033755;28;20892;-68
2021/09/21 01:29:56;;;;;;;6.70;6.20;;;15.50;91.20;;;;;;5034471;28;20410;-68
2021/09/21 01:32:22;;;;;;;7.60;6.90;;;15.40;91.50;;;;;;5033564;28;20231;-68
2021/09/21 01:34:48;;;;;;;7.20;6.70;;;15.30;91.80;;;;;;5034382;28;20533;-68
2021/09/21 01:37:14;;;;;;;8.03;7.33;;;15.20;92.20;;;;;;5033399;28;20407;-68
2021/09/21 01:39:41;;;;;;;7.10;6.50;;;15.10;92.70;;;;;;5016654;28;20801;-68
2021/09/21 01:42:07;;;;;;;8.23;7.50;;;15.00;92.80;;;;;;5034187;28;20210;-68
2021/09/21 01:44:32;;;;;;;8.13;7.40;;;14.90;93.20;;;;;;5033561;28;20452;-68
2021/09/21 01:47:02;;;;;;;7.60;6.97;;;14.90;93.50;;;;;;5054124;28;20421;-68
2021/09/21 01:49:34;;;;;;;8.23;7.53;;;14.80;93.60;;;;;;5035594;28;20193;-68
2021/09/21 01:54:43;;;;;;;8.00;7.30;;;14.80;93.70;;;;;;5053333;28;20893;-68
2021/09/21 01:59:53;;;;;;;8.80;8.10;;;14.70;93.80;;;;;;5053889;28;20438;-68
2021/09/21 02:02:18;;;;;;;9.20;8.40;;;14.60;94.00;;;;;;5035327;28;20451;-68
2021/09/21 02:04:44;;;;;;;8.40;7.70;;;14.60;94.20;;;;;;5053719;28;20174;-68
2021/09/21 02:07:10;;;;;;;8.53;7.93;;;14.60;94.50;;;;;;5053699;28;20170;-68
2021/09/21 02:09:36;;;;;;;8.13;7.40;;;14.60;94.80;;;;;;5053219;28;20920;-68
2021/09/21 02:12:02;;;;;;;8.33;7.53;;;14.60;95.00;;;;;;5053558;28;20174;-68
2021/09/21 02:14:28;;;;;;;7.97;7.43;;;14.60;95.70;;;;;;5053038;28;20182;-68
2021/09/21 02:16:56;;;;;;;7.43;6.83;;;14.60;95.40;;;;;;5053449;28;20432;-67
2021/09/21 02:19:23;;;;;;;7.60;6.90;;;14.60;95.30;;;;;;5052839;28;20176;-67
2021/09/21 02:21:49;;;;;;;8.47;7.67;;;14.60;95.10;;;;;;5053321;28;20455;-67
2021/09/21 02:24:19;;;;;;;8.43;7.67;;;14.60;94.80;;;;;;5052728;28;20507;-68
2021/09/21 02:26:46;;;;;;;8.43;7.47;;;14.60;94.50;;;;;;5053625;28;20413;-67
2021/09/21 02:29:12;;;;;;;8.23;7.40;;;14.60;94.50;;;;;;5053173;28;20456;-67
2021/09/21 02:31:38;;;;;;;9.03;8.23;;;14.50;94.60;;;;;;5053121;28;20422;-67
2021/09/21 02:34:04;;;;;;;9.87;8.00;;;14.50;94.90;;;;;;5052839;28;20422;-68
2021/09/21 02:36:30;;;;;;;8.77;8.13;;;14.50;94.90;;;;;;5052322;28;20602;-68
2021/09/21 02:38:56;;;;;;;9.60;8.80;;;14.50;94.80;;;;;;5052169;28;20224;-67
2021/09/21 02:41:22;;;;;;;9.20;8.20;;;14.40;94.50;;;;;;5052012;28;20444;-68
2021/09/21 02:43:47;;;;;;;8.90;8.07;;;14.40;94.80;;;;;;5052925;28;20625;-68
2021/09/21 02:46:13;;;;;;;9.10;8.30;;;14.40;95.20;;;;;;5039320;28;20477;-68
2021/09/21 02:48:39;;;;;;;9.53;8.60;;;14.40;95.00;;;;;;5032873;28;20202;-68
2021/09/21 02:51:05;;;;;;;9.00;8.30;;;14.40;94.70;;;;;;5032855;28;20457;-68
2021/09/21 02:53:31;;;;;;;8.70;7.80;;;14.30;94.90;;;;;;5032316;28;20174;-68
2021/09/21 02:55:57;;;;;;;8.80;8.10;;;14.30;95.30;;;;;;5032852;28;20406;-68
2021/09/21 02:58:23;;;;;;;8.90;8.00;;;14.30;95.40;;;;;;5032198;28;20647;-68
2021/09/21 03:00:51;;;;;;;8.33;7.73;;;14.40;95.60;;;;;;5032905;28;20410;-68
2021/09/21 03:03:17;;;;;;;8.47;7.77;;;14.30;95.40;;;;;;5032212;28;20193;-69
2021/09/21 03:05:53;;;;;;;9.30;8.50;;;14.30;95.40;;;;;;5032689;28;20413;-68
2021/09/21 03:08:21;;;;;;;8.70;7.90;;;14.30;95.50;;;;;;5032003;28;20967;-68
2021/09/21 03:11:10;;;;;;;10.10;7.93;;;14.30;95.60;;;;;;5015198;28;20425;-68
2021/09/21 03:19:26;;;;;;;8.57;7.87;;;14.20;95.00;;;;;;5006357;28;20987;-68
2021/09/21 03:21:53;;;;;;;8.30;7.50;;;14.10;95.10;;;;;;5032532;28;20770;-67
2021/09/21 03:24:19;;;;;;;8.70;7.90;;;14.10;95.20;;;;;;5014530;28;20417;-68
2021/09/21 03:26:46;;;;;;;8.60;7.80;;;13.90;95.60;;;;;;5014967;28;20420;-68
2021/09/21 03:29:12;;;;;;;10.20;9.03;;;13.70;96.20;;;;;;5032394;28;20451;-68
2021/09/21 03:31:38;;;;;;;8.87;8.07;;;13.50;96.70;;;;;;5031873;28;20419;-68
2021/09/21 03:34:04;;;;;;;9.40;8.60;;;13.50;97.40;;;;;;5032718;28;20177;-68
2021/09/21 03:36:30;;;;;;;9.40;8.60;;;13.60;99.20;;;;;;5031500;28;20468;-68
2021/09/21 03:38:56;;;;;;;9.23;8.43;;;13.60;99.40;;;;;;5032394;28;20181;-68
2021/09/21 03:41:22;;;;;;;9.87;8.90;;;13.60;98.80;;;;;;5031748;28;20463;-68
2021/09/21 03:43:48;;;;;;;9.03;8.20;;;13.60;97.90;;;;;;5032205;28;20402;-68
2021/09/21 03:46:14;;;;;;;9.67;8.87;;;13.60;97.60;;;;;;5031920;28;21000;-68
2021/09/21 03:48:40;;;;;;;10.47;9.57;;;13.60;97.60;;;;;;5033390;28;20468;-68
2021/09/21 03:51:05;;;;;;;9.67;8.70;;;13.60;97.50;;;;;;5035978;28;20686;-68
2021/09/21 03:53:31;;;;;;;11.70;10.80;;;13.60;97.50;;;;;;5035672;28;20201;-68
2021/09/21 03:55:57;;;;;;;9.77;8.97;;;13.70;97.80;;;;;;5036202;28;20263;-68
2021/09/21 03:58:23;;;;;;;12.73;11.67;;;13.70;97.20;;;;;;5035854;28;20191;-68
2021/09/21 04:00:48;;;;;;;10.33;9.27;;;13.70;97.10;;;;;;5036129;28;20416;-68
2021/09/21 04:03:14;;;;;;;10.57;8.77;;;13.60;97.10;;;;;;5036364;28;20236;-68
2021/09/21 04:05:41;;;;;;;10.10;7.93;;;13.70;96.80;;;;;;5035666;28;20270;-68
2021/09/21 04:08:07;;;;;;;9.27;8.40;;;13.60;96.60;;;;;;5018258;28;20216;-68
2021/09/21 04:10:33;;;;;;;10.10;9.10;;;13.60;96.80;;;;;;5034936;28;20429;-68
2021/09/21 04:12:58;;;;;;;11.77;10.60;;;13.60;96.80;;;;;;5035934;28;20184;-67
2021/09/21 04:15:24;;;;;;;12.13;10.20;;;13.60;96.50;;;;;;5035061;28;20176;-68
2021/09/21 04:17:50;;;;;;;12.63;11.53;;;13.60;96.50;;;;;;5036070;28;20192;-67
2021/09/21 04:20:15;;;;;;;10.83;9.73;;;13.60;96.60;;;;;;5035798;28;20258;-68
2021/09/21 04:22:43;;;;;;;12.73;11.63;;;13.50;96.60;;;;;;5034797;28;20626;-68
2021/09/21 04:25:10;;;;;;;11.00;10.00;;;13.50;96.80;;;;;;5035676;28;20177;-68
2021/09/21 04:27:36;;;;;;;11.37;10.47;;;13.50;96.90;;;;;;5034992;28;20470;-68
2021/09/21 04:30:03;;;;;;;11.27;9.40;;;13.50;97.10;;;;;;5035627;28;20886;-68
2021/09/21 04:32:29;;;;;;;13.27;12.00;;;13.50;97.10;;;;;;5034935;28;20167;-68
2021/09/21 04:34:55;;;;;;;9.83;8.80;;;13.50;97.00;;;;;;5035535;28;20490;-68
2021/09/21 04:37:21;;;;;;;9.60;8.40;;;13.50;97.00;;;;;;5034530;28;20180;-74
2021/09/21 04:39:50;;;;;;;10.67;9.67;;;13.50;96.90;;;;;;5017782;28;20846;-68
2021/09/21 04:42:18;;;;;;;11.23;10.20;;;13.50;96.90;;;;;;5017743;28;20413;-68
2021/09/21 04:44:44;;;;;;;9.27;8.37;;;13.40;96.80;;;;;;5016872;28;20831;-68
2021/09/21 04:47:09;;;;;;;12.10;11.20;;;13.40;96.70;;;;;;5035374;28;20402;-68
2021/09/21 04:49:35;;;;;;;10.77;9.67;;;13.30;96.50;;;;;;5034579;28;20257;-68
2021/09/21 04:52:02;;;;;;;9.57;8.60;;;13.30;96.60;;;;;;5034878;28;20536;-67
2021/09/21 04:54:27;;;;;;;10.70;9.60;;;13.30;96.80;;;;;;5034189;28;20670;-68
2021/09/21 04:56:53;;;;;;;10.60;9.23;;;13.30;97.10;;;;;;5035074;28;20409;-68
2021/09/21 04:59:19;;;;;;;11.23;8.87;;;13.30;96.80;;;;;;5034110;28;20186;-68
2021/09/21 05:01:45;;;;;;;11.10;10.00;;;13.20;96.70;;;;;;5033984;28;20229;-68
2021/09/21 05:04:11;;;;;;;11.23;10.53;;;13.20;99.40;;;;;;5027620;28;20619;-66
2021/09/21 05:06:36;;;;;;;9.93;9.13;;;13.30;99.90;;;;;;5033242;28;20460;-67
2021/09/21 05:09:02;;;;;;;11.60;8.73;;;13.20;99.10;;;;;;5034142;28;20212;-66
2021/09/21 05:11:28;;;;;;;8.93;8.07;;;13.20;97.90;;;;;;5037246;28;20650;-67
2021/09/21 05:13:54;;;;;;;8.03;7.30;;;13.20;97.30;;;;;;5041937;28;20435;-67
2021/09/21 05:16:19;;;;;;;10.37;7.93;;;13.10;97.30;;;;;;5038623;28;20185;-66
2021/09/21 05:18:45;;;;;;;8.70;7.80;;;13.10;97.30;;;;;;5034086;28;20628;-66
2021/09/21 05:21:11;;;;;;;9.60;8.80;;;13.00;97.20;;;;;;5034656;28;20676;-66
2021/09/21 05:23:36;;;;;;;9.93;8.93;;;13.00;97.10;;;;;;5034718;28;20638;-66
2021/09/21 05:26:02;;;;;;;10.90;9.80;;;12.80;97.20;;;;;;5046780;28;20177;-66
2021/09/21 05:28:28;;;;;;;9.87;9.00;;;12.40;98.10;;;;;;5053193;28;20227;-67
2021/09/21 05:30:54;;;;;;;9.07;8.17;;;12.20;99.00;;;;;;5050078;28;20441;-66
2021/09/21 05:33:19;;;;;;;11.37;9.80;;;12.10;99.30;;;;;;5053991;28;20226;-66
2021/09/21 05:35:45;;;;;;;12.03;11.03;;;12.00;99.50;;;;;;5035154;28;20181;-66
2021/09/21 05:38:11;;;;;;;10.00;9.00;;;11.90;99.70;;;;;;5035901;28;20196;-66
2021/09/21 05:40:37;;;;;;;10.17;9.30;;;12.00;99.90;;;;;;5045149;28;20174;-66
2021/09/21 05:43:02;;;;;;;8.30;7.40;;;12.10;99.90;;;;;;5053840;28;20283;-66
2021/09/21 05:45:28;;;;;;;9.60;8.70;;;12.20;99.90;;;;;;5052585;28;20240;-73
2021/09/21 05:47:54;;;;;;;9.43;8.57;;;12.20;99.90;;;;;;5053492;28;20202;-66
2021/09/21 05:50:21;;;;;;;10.33;9.53;;;12.30;99.50;;;;;;5046442;28;20179;-66
2021/09/21 05:52:46;;;;;;;10.30;9.30;;;12.40;99.40;;;;;;5032826;28;20413;-66
2021/09/21 05:55:12;;;;;;;11.30;10.10;;;12.50;99.40;;;;;;5046616;28;20416;-66
2021/09/21 05:57:40;;;;;;;9.67;8.67;;;12.60;99.90;;;;;;5048882;28;20789;-66
2021/09/21 06:00:06;;;;;;;10.53;9.53;;;12.70;99.90;;;;;;5044521;28;20418;-66
2021/09/21 06:02:32;;;;;;;11.43;10.27;;;12.70;99.90;;;;;;5032731;28;20409;-67
2021/09/21 06:04:59;;;;;;;9.80;9.00;;;12.80;99.90;;;;;;5034392;28;20421;-66
2021/09/21 06:07:25;;;;;;;13.17;9.43;;;12.90;99.90;;;;;;5033236;28;20179;-66
2021/09/21 06:09:50;;;;;;;8.90;7.73;;;13.00;99.90;;;;;;5032420;28;20972;-70
2021/09/21 06:12:16;;;;;;;9.53;8.53;;;13.00;99.90;;;;;;5020296;28;20488;-66
2021/09/21 06:14:43;;;;;;;8.40;7.67;;;13.00;99.60;;;;;;5051071;28;20176;-67
2021/09/21 06:17:09;;;;;;;9.57;8.63;;;13.10;98.60;;;;;;5042601;28;20188;-66
2021/09/21 06:19:35;;;;;;;10.90;10.00;;;13.10;99.00;;;;;;5027873;28;20457;-66
2021/09/21 06:22:00;;;;;;;8.60;7.83;;;13.20;99.90;;;;;;5040107;28;20825;-66
2021/09/21 06:24:26;;;;;;;8.63;7.87;;;13.20;99.40;;;;;;5052983;28;20216;-66
2021/09/21 06:26:52;;;;;;;10.97;9.10;;;13.20;98.90;;;;;;5041642;28;20180;-67
2021/09/21 06:29:17;;;;;;;9.30;8.40;;;13.20;99.80;;;;;;5032836;28;20288;-66
2021/09/21 06:31:43;;;;;;;9.43;8.63;;;13.30;99.90;;;;;;5032366;28;20624;-66
2021/09/21 06:34:09;;;;;;;9.40;8.70;;;13.40;99.60;;;;;;5032562;28;20178;-70
2021/09/21 06:36:36;;;;;;;10.10;9.10;;;13.40;98.60;;;;;;5019073;28;20535;-70
2021/09/21 06:39:03;;;;;;;10.10;8.87;;;13.50;98.30;;;;;;5047333;28;20427;-69
2021/09/21 06:41:29;;;;;;;8.77;7.97;;;13.50;98.50;;;;;;5049065;28;20465;-71
2021/09/21 06:43:54;;;;;;;9.70;8.80;;;13.50;98.50;;;;;;5051462;28;20459;-69
2021/09/21 06:46:20;;;;;;;10.60;9.57;;;13.60;98.60;;;;;;5043646;28;20231;-69
2021/09/21 06:48:46;;;;;;;12.20;9.67;;;13.50;98.20;;;;;;5031892;28;20213;-70
2021/09/21 06:51:13;;;;;;;11.13;8.83;;;13.60;98.00;;;;;;5037641;28;20498;-70
2021/09/21 06:53:38;;;;;;;10.07;8.30;;;13.60;97.80;;;;;;5044732;28;20460;-70
2021/09/21 06:56:05;;;;;;;9.17;8.37;;;13.60;97.70;;;;;;5040086;28;20173;-69
2021/09/21 06:58:33;;;;;;;13.30;9.60;;;13.60;97.90;;;;;;5047922;28;20181;-69
2021/09/21 07:00:59;;;;;;;9.47;8.57;;;13.60;97.80;;;;;;5033859;28;20452;-69
2021/09/21 07:03:25;;;;;;;10.77;9.77;;;13.70;97.70;;;;;;5051011;28;20430;-69
2021/09/21 07:05:53;;;;;;;10.87;9.80;;;13.70;97.90;;;;;;5050116;28;20425;-69
2021/09/21 07:08:19;;;;;;;9.87;8.97;;;13.70;98.10;;;;;;5033252;28;20298;-70
2021/09/21 07:10:44;;;;;;;9.80;8.73;;;13.70;98.60;;;;;;5031885;28;20508;-70
2021/09/21 07:13:10;;;;;;;10.17;9.10;;;13.70;99.00;;;;;;5046592;28;20188;-69
2021/09/21 07:15:36;;;;;;;10.30;9.27;;;13.70;99.00;;;;;;5051193;28;20629;-70
2021/09/21 07:18:02;;;;;;;14.70;8.87;;;13.80;98.90;;;;;;5043465;28;20205;-70
2021/09/21 07:20:27;;;;;;;9.87;8.57;;;13.80;99.40;;;;;;5035182;28;20542;-68
2021/09/21 07:22:54;;;;;;;10.60;8.70;;;13.80;99.50;;;;;;5031486;28;20626;-68
2021/09/21 07:25:20;;;;;;;8.90;8.10;;;13.90;99.20;;;;;;5032366;28;20178;-71
2021/09/21 07:27:47;;;;;;;11.63;9.90;;;13.90;99.20;;;;;;5032469;28;20421;-69
2021/09/21 07:30:14;;;;;;;10.43;9.53;;;13.90;99.40;;;;;;5020744;28;20447;-69
2021/09/21 07:32:40;;;;;;;11.57;9.40;;;14.00;99.30;;;;;;5037791;28;20408;-69
2021/09/21 07:35:06;;;;;;;10.67;9.50;;;14.00;98.50;;;;;;5051938;28;20428;-69
2021/09/21 07:37:32;;;;;;;11.97;9.70;;;14.10;98.50;;;;;;5051745;28;20436;-71
2021/09/21 07:39:58;;;;;;;9.50;8.60;;;14.10;98.50;;;;;;5024866;28;20429;-69
2021/09/21 07:42:24;;;;;;;10.43;9.30;;;14.10;99.00;;;;;;5043579;28;20619;-69
2021/09/21 07:44:50;;;;;;;9.73;8.80;;;14.20;98.90;;;;;;5051526;28;20445;-69
2021/09/21 07:47:15;;;;;;;8.77;7.80;;;14.20;98.70;;;;;;5034581;28;20253;-68
2021/09/21 07:49:42;;;;;;;11.50;9.57;;;14.30;98.30;;;;;;5031711;28;20211;-69
2021/09/21 07:52:08;;;;;;;10.10;9.03;;;14.40;98.80;;;;;;5014347;28;20412;-69
2021/09/21 07:54:34;;;;;;;10.77;9.67;;;14.50;99.00;;;;;;5031683;28;20411;-70
2021/09/21 07:57:01;;;;;;;10.13;9.13;;;14.50;98.80;;;;;;5032383;28;20397;-69
2021/09/21 07:59:27;;;;;;;9.73;8.73;;;14.60;98.80;;;;;;5031947;28;20190;-69
2021/09/21 08:01:53;;;;;;;11.20;9.20;;;14.70;98.60;;;;;;5031610;28;20629;-69
2021/09/21 08:04:18;;;;;;;11.23;9.03;;;14.70;97.90;;;;;;5032065;28;20416;-69
2021/09/21 08:06:44;;;;;;;9.70;8.90;;;14.80;98.20;;;;;;5035008;28;20215;-69
2021/09/21 08:09:10;;;;;;;8.90;8.10;;;14.90;98.50;;;;;;5036679;28;20212;-69
2021/09/21 08:11:35;;;;;;;11.87;9.43;;;15.00;98.20;;;;;;5032232;28;20173;-76
2021/09/21 08:14:07;;;;;;;9.60;8.70;;;15.10;97.70;;;;;;5044872;28;20234;-69
2021/09/21 08:16:33;;;;;;;9.77;8.77;;;15.10;97.40;;;;;;5034307;28;20178;-70
2021/09/21 08:19:00;;;;;;;10.33;9.33;;;15.20;97.10;;;;;;5034084;28;20424;-70
2021/09/21 08:21:26;;;;;;;8.70;7.93;;;15.30;97.40;;;;;;5039355;28;20434;-69
2021/09/21 08:23:58;;;;;;;8.47;7.67;;;15.40;98.20;;;;;;5050582;28;20405;-70
2021/09/21 08:26:24;;;;;;;11.10;9.90;;;15.50;98.40;;;;;;5033850;28;20168;-69
2021/09/21 08:28:50;;;;;;;10.17;8.80;;;15.60;97.70;;;;;;5051026;28;20537;-70
2021/09/21 08:31:15;;;;;;;10.20;8.77;;;15.70;97.00;;;;;;5033985;28;20928;-69
2021/09/21 08:33:41;;;;;;;12.60;9.37;;;15.80;96.50;;;;;;5051312;28;20178;-70
2021/09/21 08:36:07;;;;;;;15.20;10.80;;;15.80;97.00;;;;;;5055287;28;20174;-69
2021/09/21 08:38:32;;;;;;;17.67;12.70;;;15.90;96.90;;;;;;5055352;28;20180;-70
2021/09/21 08:40:59;;;;;;;14.93;11.50;;;16.10;96.50;;;;;;5054791;28;20248;-70
2021/09/21 08:43:25;;;;;;;16.00;11.60;;;16.20;97.10;;;;;;5055680;28;20649;-70
2021/09/21 08:45:51;;;;;;;9.40;8.40;;;16.30;96.80;;;;;;5054572;28;20796;-70
2021/09/21 08:48:16;;;;;;;10.13;9.13;;;16.40;95.90;;;;;;5055211;28;20543;-70
2021/09/21 08:50:42;;;;;;;12.87;11.57;;;16.50;95.40;;;;;;5054586;28;20239;-70
2021/09/21 08:53:08;;;;;;;11.70;9.93;;;16.50;95.00;;;;;;5037123;28;20409;-70
2021/09/21 08:55:34;;;;;;;9.80;8.80;;;16.60;94.70;;;;;;5055085;28;20772;-70
2021/09/21 08:58:01;;;;;;;10.03;9.13;;;16.70;94.50;;;;;;5054485;28;20177;-70
2021/09/21 09:00:29;;;;;;;9.53;7.90;;;16.80;95.10;;;;;;5055350;28;20428;-70
2021/09/21 09:03:09;;;;;;;7.93;7.03;;;16.90;95.30;;;;;;5054294;28;20415;-70
2021/09/21 09:05:47;;;;;;;8.30;7.23;;;17.10;95.20;;;;;;5054858;28;20457;-70
2021/09/21 09:08:14;;;;;;;7.90;7.13;;;17.20;95.20;;;;;;5054954;28;20479;-69
2021/09/21 09:10:40;;;;;;;9.10;6.40;;;17.30;95.60;;;;;;5036498;28;20455;-70
2021/09/21 09:13:19;;;;;;;9.23;6.17;;;17.40;93.90;;;;;;5054728;28;20454;-70
2021/09/21 09:15:55;;;;;;;6.43;5.93;;;17.40;92.20;;;;;;5053700;28;20408;-70
2021/09/21 09:18:27;;;;;;;6.03;5.50;;;17.60;93.40;;;;;;5054738;28;20979;-70
2021/09/21 09:20:53;;;;;;;6.00;5.50;;;17.70;92.80;;;;;;5053940;28;20879;-70
2021/09/21 09:23:19;;;;;;;6.37;5.77;;;17.80;92.80;;;;;;5054535;28;20396;-70
2021/09/21 09:25:47;;;;;;;7.33;6.73;;;17.90;92.60;;;;;;5053623;28;20403;-70
2021/09/21 09:28:17;;;;;;;7.47;6.77;;;18.00;91.90;;;;;;5054287;28;20535;-69
2021/09/21 09:30:44;;;;;;;8.63;7.70;;;18.10;91.90;;;;;;5053411;28;20523;-69
2021/09/21 09:33:10;;;;;;;6.53;5.60;;;18.20;91.50;;;;;;5054525;28;20428;-69
2021/09/21 09:35:38;;;;;;;7.23;6.60;;;18.10;89.30;;;;;;5054379;28;20411;-69
2021/09/21 09:38:14;;;;;;;6.47;5.87;;;18.20;90.10;;;;;;5054546;28;20417;-70
2021/09/21 09:40:43;;;;;;;6.13;5.53;;;18.30;88.60;;;;;;5053660;28;20493;-70
2021/09/21 09:43:09;;;;;;;8.33;7.63;;;18.40;86.60;;;;;;5054153;28;20759;-69
2021/09/21 09:45:38;;;;;;;7.17;6.47;;;18.50;88.10;;;;;;5053453;28;20535;-69
2021/09/21 09:48:10;;;;;;;7.33;6.63;;;18.70;89.00;;;;;;5035958;28;20216;-70
2021/09/21 09:50:42;;;;;;;8.33;7.73;;;18.90;90.40;;;;;;5054109;28;20404;-70
2021/09/21 09:53:09;;;;;;;8.87;6.10;;;19.10;90.00;;;;;;5054130;28;20784;-69
2021/09/21 09:55:36;;;;;;;7.37;6.90;;;19.30;86.60;;;;;;5053864;28;20408;-70
2021/09/21 09:58:03;;;;;;;6.27;5.87;;;19.50;83.40;;;;;;5053516;28;20420;-69
2021/09/21 10:00:29;;;;;;;5.50;5.10;;;19.60;82.30;;;;;;5053848;28;20420;-70
2021/09/21 10:02:55;;;;;;;5.13;4.80;;;19.80;84.90;;;;;;5053242;28;20440;-70
2021/09/21 10:05:22;;;;;;;6.00;5.60;;;19.90;85.20;;;;;;5054142;28;20409;-70
2021/09/21 10:07:48;;;;;;;5.80;5.23;;;20.20;81.60;;;;;;5053035;28;20812;-70
2021/09/21 10:10:14;;;;;;;5.77;5.37;;;20.30;77.90;;;;;;5053895;28;20473;-70
2021/09/21 10:12:41;;;;;;;5.67;5.27;;;20.50;79.10;;;;;;5053547;28;20200;-77
2021/09/21 10:15:11;;;;;;;5.50;5.20;;;20.70;77.80;;;;;;5053657;28;20412;-70
2021/09/21 10:17:47;;;;;;;5.10;4.63;;;20.80;78.80;;;;;;5053205;28;20404;-69
2021/09/21 10:20:13;;;;;;;6.03;5.60;;;20.80;72.40;;;;;;5053624;28;20400;-70
2021/09/21 10:22:39;;;;;;;4.47;4.17;;;20.70;71.60;;;;;;5053406;28;20404;-70
2021/09/21 10:25:09;;;;;;;6.50;6.10;;;20.70;73.10;;;;;;5052727;28;20911;-69
2021/09/21 10:27:39;;;;;;;5.53;5.13;;;20.80;73.40;;;;;;5053315;28;20174;-70
2021/09/21 10:30:10;;;;;;;5.30;5.00;;;21.00;78.80;;;;;;5052674;28;20412;-69
2021/09/21 10:32:47;;;;;;;6.87;6.40;;;21.20;72.40;;;;;;5053209;28;20405;-71
2021/09/21 10:35:19;;;;;;;6.10;5.60;;;21.40;72.40;;;;;;5053452;28;20397;-69
2021/09/21 10:38:03;;;;;;;8.70;5.70;;;21.50;69.50;;;;;;5052337;28;20400;-70
2021/09/21 10:40:42;;;;;;;5.90;5.60;;;21.50;66.70;;;;;;5052992;28;20404;-70
2021/09/21 10:43:27;;;;;;;6.50;6.10;;;21.60;71.80;;;;;;5053071;28;20499;-70
2021/09/21 10:46:15;;;;;;;5.93;5.53;;;21.70;66.00;;;;;;5051868;28;20808;-70
2021/09/21 10:48:44;;;;;;;6.20;5.80;;;21.70;70.20;;;;;;5052950;28;20943;-70
2021/09/21 10:51:11;;;;;;;5.93;5.60;;;21.70;67.70;;;;;;5052593;28;20514;-70
2021/09/21 10:53:38;;;;;;;6.40;6.10;;;21.90;66.80;;;;;;5052610;28;20495;-70
2021/09/21 10:56:09;;;;;;;6.20;5.90;;;22.00;71.60;;;;;;5034373;28;20413;-69
2021/09/21 10:58:35;;;;;;;5.67;5.37;;;22.20;66.70;;;;;;5035181;28;20483;-70
2021/09/21 11:01:03;;;;;;;6.10;5.73;;;22.30;66.00;;;;;;5034450;28;20428;-70
2021/09/21 11:03:31;;;;;;;6.30;6.00;;;22.60;64.20;;;;;;5052815;28;20441;-70
2021/09/21 11:05:58;;;;;;;6.23;5.93;;;22.70;61.00;;;;;;5052046;28;20423;-70
2021/09/21 11:08:32;;;;;;;5.27;4.97;;;22.70;62.00;;;;;;5052751;28;20536;-69
2021/09/21 11:10:59;;;;;;;6.50;6.00;;;22.60;64.70;;;;;;5052099;28;20583;-69
2021/09/21 11:13:30;;;;;;;5.23;4.93;;;22.60;61.10;;;;;;5034670;28;20782;-70
2021/09/21 11:16:14;;;;;;;5.27;4.97;;;22.60;63.40;;;;;;5052359;28;20781;-70
2021/09/21 11:18:43;;;;;;;5.57;5.17;;;22.60;64.60;;;;;;5052638;28;20398;-69
2021/09/21 11:21:11;;;;;;;5.73;5.27;;;22.60;64.10;;;;;;5051990;28;20763;-70
2021/09/21 11:23:40;;;;;;;6.53;5.93;;;22.60;63.00;;;;;;5052555;28;20426;-70
2021/09/21 11:26:08;;;;;;;4.97;4.70;;;22.60;64.00;;;;;;5051969;28;20408;-69
2021/09/21 11:28:37;;;;;;;4.47;4.07;;;22.60;64.80;;;;;;5052504;28;20606;-70
2021/09/21 11:31:03;;;;;;;4.67;4.47;;;22.60;60.00;;;;;;5051603;28;20991;-70
2021/09/21 11:33:32;;;;;;;4.30;4.00;;;22.60;63.10;;;;;;5052379;28;20899;-70
2021/09/21 11:36:05;;;;;;;3.70;3.50;;;22.60;64.30;;;;;;5051853;28;20392;-70
2021/09/21 11:38:39;;;;;;;4.20;3.90;;;22.60;63.90;;;;;;5052508;28;20432;-70
2021/09/21 11:41:05;;;;;;;5.20;4.80;;;22.70;63.50;;;;;;5051845;28;20404;-70
2021/09/21 11:43:31;;;;;;;3.87;3.57;;;22.70;63.40;;;;;;5052348;28;20724;-70
2021/09/21 11:45:57;;;;;;;5.67;3.97;;;22.70;61.80;;;;;;5053602;28;20561;-69
2021/09/21 11:48:23;;;;;;;4.53;4.30;;;22.60;61.50;;;;;;5072300;28;20211;-70
2021/09/21 11:50:50;;;;;;;4.57;4.10;;;22.50;59.70;;;;;;5071784;28;20458;-70
2021/09/21 11:53:23;;;;;;;3.87;3.57;;;22.40;61.00;;;;;;5072368;28;20396;-70
2021/09/21 11:55:51;;;;;;;4.70;4.30;;;22.40;62.50;;;;;;5071805;28;20442;-70
2021/09/21 11:58:18;;;;;;;4.00;3.80;;;22.30;63.00;;;;;;5072511;28;20407;-70
2021/09/21 12:00:55;;;;;;;4.53;4.33;;;22.30;63.80;;;;;;5072242;28;20399;-70
2021/09/21 12:03:22;;;;;;;4.33;4.13;;;22.30;62.00;;;;;;5072442;28;20399;-70
2021/09/21 12:05:51;;;;;;;4.40;4.10;;;22.40;59.60;;;;;;5071561;28;20422;-70
2021/09/21 12:08:18;;;;;;;3.90;3.70;;;22.30;62.10;;;;;;5072022;28;20471;-69
2021/09/21 12:10:51;;;;;;;4.50;4.30;;;22.20;57.80;;;;;;5075345;28;20419;-70
2021/09/21 12:13:19;;;;;;;4.10;3.90;;;21.90;58.30;;;;;;5075628;28;20879;-69
2021/09/21 12:15:50;;;;;;;6.43;6.00;;;21.80;58.70;;;;;;5074694;28;20890;-69
2021/09/21 12:18:17;;;;;;;6.00;5.60;;;21.80;60.80;;;;;;5075597;28;20836;-69
2021/09/21 12:20:49;;;;;;;4.13;3.93;;;21.70;58.90;;;;;;5075717;28;20407;-69
2021/09/21 12:23:15;;;;;;;4.80;4.50;;;21.70;60.80;;;;;;5075756;28;20391;-69
2021/09/21 12:25:43;;;;;;;4.53;4.33;;;21.40;59.90;;;;;;5075637;28;20403;-69
2021/09/21 12:28:10;;;;;;;4.80;4.50;;;21.10;59.90;;;;;;5075031;28;20553;-69
2021/09/21 12:30:41;;;;;;;4.57;4.20;;;21.10;60.70;;;;;;5075557;28;20474;-69
2021/09/21 12:33:14;;;;;;;4.50;4.20;;;21.10;62.80;;;;;;5074971;28;20743;-69
2021/09/21 12:35:44;;;;;;;4.43;4.13;;;21.10;64.70;;;;;;5074237;28;20803;-69
2021/09/21 12:38:16;;;;;;;3.80;3.60;;;21.10;62.50;;;;;;5074910;28;20490;-69
2021/09/21 12:40:48;;;;;;;5.00;4.60;;;21.10;66.50;;;;;;5075539;28;20392;-69
2021/09/21 12:43:18;;;;;;;4.27;3.87;;;21.10;68.40;;;;;;5075174;28;20415;-69
2021/09/21 12:45:45;;;;;;;4.40;4.20;;;21.10;66.80;;;;;;5065582;28;20575;-69
2021/09/21 12:48:11;;;;;;;4.90;4.60;;;21.10;65.90;;;;;;5054586;28;20531;-69
2021/09/21 12:50:40;;;;;;;4.33;4.03;;;21.00;66.80;;;;;;5055326;28;20881;-69
2021/09/21 12:53:06;;;;;;;4.77;4.47;;;21.00;67.80;;;;;;5054624;28;20400;-69
2021/09/21 12:55:37;;;;;;;5.00;4.60;;;21.00;65.90;;;;;;5037222;28;20454;-69